sensor_id;sensor_type;location;lat;lon;timestamp;pressure;altitude;pressure_sealevel;temperature;humidity
59053;BME280;44843;44.728;10.396;2023-04-20T00:01:53;100059.97;;;14.60;nan
59053;BME280;44843;44.728;10.396;2023-04-20T00:04:18;100054.94;;;14.68;nan
59053;BME280;44843;44.728;10.396;2023-04-20T00:06:44;100049.00;;;14.55;nan
59053;BME280;44843;44.728;10.396;2023-04-20T00:09:12;100051.59;;;14.66;nan
59053;BME280;44843;44.728;10.396;2023-04-20T00:11:38;100049.91;;;14.76;nan
59053;BME280;44843;44.728;10.396;2023-04-20T00:14:04;100049.31;;;14.73;nan
59053;BME280;44843;44.728;10.396;2023-04-20T00:16:29;100053.91;;;14.92;nan
59053;BME280;44843;44.728;10.396;2023-04-20T00:18:55;100048.94;;;14.77;nan
59053;BME280;44843;44.728;10.396;2023-04-20T00:21:20;100045.78;;;14.95;nan
59053;BME280;44843;44.728;10.396;2023-04-20T00:23:48;100041.81;;;14.68;nan
59053;BME280;44843;44.728;10.396;2023-04-20T00:26:14;100044.41;;;14.79;nan
59053;BME280;44843;44.728;10.396;2023-04-20T00:28:39;100036.78;;;14.76;nan
59053;BME280;44843;44.728;10.396;2023-04-20T00:31:05;100036.50;;;14.58;nan
59053;BME280;44843;44.728;10.396;2023-04-20T00:33:30;100038.53;;;14.55;nan
59053;BME280;44843;44.728;10.396;2023-04-20T00:35:56;100030.72;;;14.53;nan
59053;BME280;44843;44.728;10.396;2023-04-20T00:38:21;100037.88;;;14.62;nan
59053;BME280;44843;44.728;10.396;2023-04-20T00:40:46;100027.38;;;14.62;nan
59053;BME280;44843;44.728;10.396;2023-04-20T00:43:17;100028.19;;;14.74;nan
59053;BME280;44843;44.728;10.396;2023-04-20T00:45:43;100026.28;;;14.76;nan
59053;BME280;44843;44.728;10.396;2023-04-20T00:48:08;100021.91;;;14.66;nan
59053;BME280;44843;44.728;10.396;2023-04-20T00:50:34;100024.59;;;14.75;nan
59053;BME280;44843;44.728;10.396;2023-04-20T00:53:00;100023.19;;;14.71;nan
59053;BME280;44843;44.728;10.396;2023-04-20T00:55:26;100020.50;;;14.61;nan
59053;BME280;44843;44.728;10.396;2023-04-20T00:57:52;100020.34;;;14.52;nan
59053;BME280;44843;44.728;10.396;2023-04-20T01:00:17;100016.44;;;14.46;nan
59053;BME280;44843;44.728;10.396;2023-04-20T01:02:43;100015.63;;;14.46;nan
59053;BME280;44843;44.728;10.396;2023-04-20T01:05:08;100022.66;;;14.56;nan
59053;BME280;44843;44.728;10.396;2023-04-20T01:07:34;100015.13;;;14.63;nan
59053;BME280;44843;44.728;10.396;2023-04-20T01:10:01;100016.69;;;14.54;nan
59053;BME280;44843;44.728;10.396;2023-04-20T01:12:26;100017.41;;;14.56;nan
59053;BME280;44843;44.728;10.396;2023-04-20T01:14:51;100018.81;;;14.49;nan
59053;BME280;44843;44.728;10.396;2023-04-20T01:17:17;100013.34;;;14.52;nan
59053;BME280;44843;44.728;10.396;2023-04-20T01:19:44;100014.78;;;14.34;nan
59053;BME280;44843;44.728;10.396;2023-04-20T01:22:16;100010.03;;;14.39;nan
59053;BME280;44843;44.728;10.396;2023-04-20T01:24:42;100020.03;;;14.34;nan
59053;BME280;44843;44.728;10.396;2023-04-20T01:27:08;100022.81;;;14.32;nan
59053;BME280;44843;44.728;10.396;2023-04-20T01:29:33;100025.78;;;14.28;nan
59053;BME280;44843;44.728;10.396;2023-04-20T01:31:59;100016.13;;;14.28;nan
59053;BME280;44843;44.728;10.396;2023-04-20T01:34:24;100018.63;;;14.18;nan
59053;BME280;44843;44.728;10.396;2023-04-20T01:36:50;100015.19;;;14.18;nan
59053;BME280;44843;44.728;10.396;2023-04-20T01:39:16;100021.25;;;14.18;nan
59053;BME280;44843;44.728;10.396;2023-04-20T01:41:41;100018.06;;;14.15;nan
59053;BME280;44843;44.728;10.396;2023-04-20T01:44:07;100021.25;;;14.18;nan
59053;BME280;44843;44.728;10.396;2023-04-20T01:46:32;100008.53;;;14.02;nan
59053;BME280;44843;44.728;10.396;2023-04-20T01:49:00;100015.94;;;13.97;nan
59053;BME280;44843;44.728;10.396;2023-04-20T01:51:26;100011.28;;;14.01;nan
59053;BME280;44843;44.728;10.396;2023-04-20T01:53:52;100004.59;;;13.97;nan
59053;BME280;44843;44.728;10.396;2023-04-20T01:56:17;100008.28;;;13.94;nan
59053;BME280;44843;44.728;10.396;2023-04-20T01:58:42;100010.81;;;13.96;nan
59053;BME280;44843;44.728;10.396;2023-04-20T02:01:08;100018.91;;;13.81;nan
59053;BME280;44843;44.728;10.396;2023-04-20T02:03:33;100016.66;;;13.19;nan
59053;BME280;44843;44.728;10.396;2023-04-20T02:05:58;100022.41;;;13.35;nan
59053;BME280;44843;44.728;10.396;2023-04-20T02:08:24;100014.09;;;13.42;nan
59053;BME280;44843;44.728;10.396;2023-04-20T02:10:49;100015.28;;;13.37;nan
59053;BME280;44843;44.728;10.396;2023-04-20T02:13:15;100017.78;;;13.39;nan
59053;BME280;44843;44.728;10.396;2023-04-20T02:15:40;100011.84;;;13.37;nan
59053;BME280;44843;44.728;10.396;2023-04-20T02:18:06;100012.00;;;13.23;nan
59053;BME280;44843;44.728;10.396;2023-04-20T02:20:31;100008.84;;;13.30;nan
59053;BME280;44843;44.728;10.396;2023-04-20T02:22:56;100004.09;;;13.35;nan
59053;BME280;44843;44.728;10.396;2023-04-20T02:25:22;100009.38;;;13.23;nan
59053;BME280;44843;44.728;10.396;2023-04-20T02:27:47;100007.63;;;13.23;nan
59053;BME280;44843;44.728;10.396;2023-04-20T02:30:13;100005.06;;;13.34;nan
59053;BME280;44843;44.728;10.396;2023-04-20T02:32:39;100000.03;;;13.31;nan
59053;BME280;44843;44.728;10.396;2023-04-20T02:35:04;100006.84;;;13.45;nan
59053;BME280;44843;44.728;10.396;2023-04-20T02:37:30;100006.03;;;13.45;nan
59053;BME280;44843;44.728;10.396;2023-04-20T02:39:55;100001.84;;;13.42;nan
59053;BME280;44843;44.728;10.396;2023-04-20T02:42:21;100006.03;;;13.45;nan
59053;BME280;44843;44.728;10.396;2023-04-20T02:44:46;100003.63;;;13.42;nan
59053;BME280;44843;44.728;10.396;2023-04-20T02:47:11;100004.81;;;13.37;nan
59053;BME280;44843;44.728;10.396;2023-04-20T02:49:37;99998.03;;;13.35;nan
59053;BME280;44843;44.728;10.396;2023-04-20T02:52:03;99990.16;;;13.35;nan
59053;BME280;44843;44.728;10.396;2023-04-20T02:54:29;99992.91;;;13.33;nan
59053;BME280;44843;44.728;10.396;2023-04-20T02:56:54;99995.78;;;13.42;nan
59053;BME280;44843;44.728;10.396;2023-04-20T02:59:19;99990.53;;;13.53;nan
59053;BME280;44843;44.728;10.396;2023-04-20T03:01:45;99998.66;;;13.50;nan
59053;BME280;44843;44.728;10.396;2023-04-20T03:04:11;99999.38;;;13.52;nan
59053;BME280;44843;44.728;10.396;2023-04-20T03:06:36;99998.66;;;13.50;nan
59053;BME280;44843;44.728;10.396;2023-04-20T03:09:04;100002.38;;;13.12;nan
59053;BME280;44843;44.728;10.396;2023-04-20T03:11:29;99990.09;;;13.12;nan
59053;BME280;44843;44.728;10.396;2023-04-20T03:13:55;99993.56;;;13.13;nan
59053;BME280;44843;44.728;10.396;2023-04-20T03:16:20;100001.06;;;13.17;nan
59053;BME280;44843;44.728;10.396;2023-04-20T03:18:46;99997.34;;;13.09;nan
59053;BME280;44843;44.728;10.396;2023-04-20T03:21:11;99994.25;;;13.04;nan
59053;BME280;44843;44.728;10.396;2023-04-20T03:23:36;99992.47;;;13.15;nan
59053;BME280;44843;44.728;10.396;2023-04-20T03:26:02;99995.34;;;13.12;nan
59053;BME280;44843;44.728;10.396;2023-04-20T03:28:28;99994.59;;;12.99;nan
59053;BME280;44843;44.728;10.396;2023-04-20T03:30:53;99991.72;;;13.02;nan
59053;BME280;44843;44.728;10.396;2023-04-20T03:33:19;99990.97;;;12.89;nan
59053;BME280;44843;44.728;10.396;2023-04-20T03:35:44;99990.25;;;12.87;nan
59053;BME280;44843;44.728;10.396;2023-04-20T03:38:10;99996.06;;;12.79;nan
59053;BME280;44843;44.728;10.396;2023-04-20T03:40:35;99992.88;;;12.87;nan
59053;BME280;44843;44.728;10.396;2023-04-20T03:43:01;99996.94;;;12.91;nan
59053;BME280;44843;44.728;10.396;2023-04-20T03:45:26;99993.41;;;13.03;nan
59053;BME280;44843;44.728;10.396;2023-04-20T03:47:52;99992.75;;;12.88;nan
59053;BME280;44843;44.728;10.396;2023-04-20T03:50:17;99994.69;;;12.62;nan
59053;BME280;44843;44.728;10.396;2023-04-20T03:52:42;99993.50;;;12.90;nan
59053;BME280;44843;44.728;10.396;2023-04-20T03:55:08;99995.53;;;12.98;nan
59053;BME280;44843;44.728;10.396;2023-04-20T03:57:33;99996.34;;;12.98;nan
59053;BME280;44843;44.728;10.396;2023-04-20T03:59:59;99998.16;;;13.09;nan
59053;BME280;44843;44.728;10.396;2023-04-20T04:02:24;99989.13;;;13.02;nan
59053;BME280;44843;44.728;10.396;2023-04-20T04:04:49;99994.97;;;13.06;nan
59053;BME280;44843;44.728;10.396;2023-04-20T04:07:15;99999.22;;;12.95;nan
59053;BME280;44843;44.728;10.396;2023-04-20T04:09:40;99996.69;;;12.94;nan
59053;BME280;44843;44.728;10.396;2023-04-20T04:12:06;99997.66;;;12.93;nan
59053;BME280;44843;44.728;10.396;2023-04-20T04:14:32;99999.06;;;12.86;nan
59053;BME280;44843;44.728;10.396;2023-04-20T04:16:58;99993.56;;;12.77;nan
59053;BME280;44843;44.728;10.396;2023-04-20T04:19:23;99996.59;;;12.95;nan
59053;BME280;44843;44.728;10.396;2023-04-20T04:21:49;99996.69;;;12.94;nan
59053;BME280;44843;44.728;10.396;2023-04-20T04:24:15;99999.44;;;12.92;nan
59053;BME280;44843;44.728;10.396;2023-04-20T04:26:41;99996.13;;;13.02;nan
59053;BME280;44843;44.728;10.396;2023-04-20T04:29:07;99997.16;;;12.88;nan
59053;BME280;44843;44.728;10.396;2023-04-20T04:31:33;99997.44;;;12.72;nan
59053;BME280;44843;44.728;10.396;2023-04-20T04:33:59;99996.84;;;12.68;nan
59053;BME280;44843;44.728;10.396;2023-04-20T04:36:25;99991.09;;;12.63;nan
59053;BME280;44843;44.728;10.396;2023-04-20T04:38:51;100006.34;;;12.69;nan
59053;BME280;44843;44.728;10.396;2023-04-20T04:41:17;100001.13;;;12.69;nan
59053;BME280;44843;44.728;10.396;2023-04-20T04:43:43;100003.34;;;12.63;nan
59053;BME280;44843;44.728;10.396;2023-04-20T04:46:09;100004.13;;;12.52;nan
59053;BME280;44843;44.728;10.396;2023-04-20T04:48:36;100002.88;;;12.57;nan
59053;BME280;44843;44.728;10.396;2023-04-20T04:51:02;99995.41;;;12.64;nan
59053;BME280;44843;44.728;10.396;2023-04-20T04:53:28;99990.97;;;12.89;nan
59053;BME280;44843;44.728;10.396;2023-04-20T04:55:53;99995.38;;;12.88;nan
59053;BME280;44843;44.728;10.396;2023-04-20T04:58:19;99990.88;;;12.90;nan
59053;BME280;44843;44.728;10.396;2023-04-20T05:00:44;100011.44;;;12.84;nan
59053;BME280;44843;44.728;10.396;2023-04-20T05:03:09;100002.72;;;12.83;nan
59053;BME280;44843;44.728;10.396;2023-04-20T05:05:35;100014.53;;;12.89;nan
59053;BME280;44843;44.728;10.396;2023-04-20T05:08:00;100016.28;;;12.77;nan
59053;BME280;44843;44.728;10.396;2023-04-20T05:10:26;100009.75;;;12.83;nan
59053;BME280;44843;44.728;10.396;2023-04-20T05:12:51;100015.06;;;12.81;nan
59053;BME280;44843;44.728;10.396;2023-04-20T05:15:17;100021.63;;;12.75;nan
59053;BME280;44843;44.728;10.396;2023-04-20T05:17:42;100023.84;;;12.69;nan
59053;BME280;44843;44.728;10.396;2023-04-20T05:20:08;100023.00;;;12.68;nan
59053;BME280;44843;44.728;10.396;2023-04-20T05:22:35;100027.28;;;12.69;nan
59053;BME280;44843;44.728;10.396;2023-04-20T05:25:01;100030.66;;;12.83;nan
59053;BME280;44843;44.728;10.396;2023-04-20T05:27:26;100039.25;;;12.85;nan
59053;BME280;44843;44.728;10.396;2023-04-20T05:29:51;100037.78;;;13.05;nan
59053;BME280;44843;44.728;10.396;2023-04-20T05:32:17;100041.25;;;12.81;nan
59053;BME280;44843;44.728;10.396;2023-04-20T05:34:42;100034.19;;;12.94;nan
59053;BME280;44843;44.728;10.396;2023-04-20T05:37:07;100042.16;;;12.93;nan
59053;BME280;44843;44.728;10.396;2023-04-20T05:39:33;100027.53;;;13.02;nan
59053;BME280;44843;44.728;10.396;2023-04-20T05:41:59;100039.47;;;13.06;nan
59053;BME280;44843;44.728;10.396;2023-04-20T05:44:24;100037.09;;;13.14;nan
59053;BME280;44843;44.728;10.396;2023-04-20T05:46:50;100031.97;;;13.12;nan
59053;BME280;44843;44.728;10.396;2023-04-20T05:49:15;100029.75;;;13.19;nan
59053;BME280;44843;44.728;10.396;2023-04-20T05:51:41;100031.75;;;13.15;nan
59053;BME280;44843;44.728;10.396;2023-04-20T05:54:06;100035.97;;;13.05;nan
59053;BME280;44843;44.728;10.396;2023-04-20T05:56:31;100039.50;;;13.17;nan
59053;BME280;44843;44.728;10.396;2023-04-20T05:58:57;100034.22;;;13.06;nan
59053;BME280;44843;44.728;10.396;2023-04-20T06:01:23;100044.59;;;12.83;nan
59053;BME280;44843;44.728;10.396;2023-04-20T06:03:49;100038.56;;;12.70;nan
59053;BME280;44843;44.728;10.396;2023-04-20T06:06:14;100034.75;;;12.63;nan
59053;BME280;44843;44.728;10.396;2023-04-20T06:08:40;100039.97;;;12.63;nan
59053;BME280;44843;44.728;10.396;2023-04-20T06:11:05;100030.84;;;12.44;nan
59053;BME280;44843;44.728;10.396;2023-04-20T06:13:31;100033.53;;;12.55;nan
59053;BME280;44843;44.728;10.396;2023-04-20T06:15:56;100032.22;;;12.61;nan
59053;BME280;44843;44.728;10.396;2023-04-20T06:18:22;100042.13;;;12.45;nan
59053;BME280;44843;44.728;10.396;2023-04-20T06:20:47;100048.22;;;12.69;nan
59053;BME280;44843;44.728;10.396;2023-04-20T06:23:13;100046.28;;;12.60;nan
59053;BME280;44843;44.728;10.396;2023-04-20T06:25:38;100046.09;;;12.74;nan
59053;BME280;44843;44.728;10.396;2023-04-20T06:28:04;100056.25;;;12.79;nan
59053;BME280;44843;44.728;10.396;2023-04-20T06:30:31;100054.50;;;12.91;nan
59053;BME280;44843;44.728;10.396;2023-04-20T06:32:58;100062.69;;;12.86;nan
59053;BME280;44843;44.728;10.396;2023-04-20T06:35:23;100066.41;;;12.95;nan
59053;BME280;44843;44.728;10.396;2023-04-20T06:37:49;100071.88;;;12.92;nan
59053;BME280;44843;44.728;10.396;2023-04-20T06:40:14;100073.94;;;12.99;nan
59053;BME280;44843;44.728;10.396;2023-04-20T06:42:40;100077.47;;;12.98;nan
59053;BME280;44843;44.728;10.396;2023-04-20T06:45:06;100072.91;;;13.13;nan
59053;BME280;44843;44.728;10.396;2023-04-20T06:47:32;100069.75;;;13.21;nan
59053;BME280;44843;44.728;10.396;2023-04-20T06:50:01;100061.38;;;13.16;nan
59053;BME280;44843;44.728;10.396;2023-04-20T06:52:28;100035.63;;;12.74;nan
59053;BME280;44843;44.728;10.396;2023-04-20T06:54:56;100025.63;;;12.44;nan
59053;BME280;44843;44.728;10.396;2023-04-20T06:57:22;100017.47;;;12.36;nan
59053;BME280;44843;44.728;10.396;2023-04-20T06:59:47;100022.91;;;12.33;nan
59053;BME280;44843;44.728;10.396;2023-04-20T07:02:13;100019.16;;;12.24;nan
59053;BME280;44843;44.728;10.396;2023-04-20T07:04:38;100022.28;;;12.42;nan
59053;BME280;44843;44.728;10.396;2023-04-20T07:07:03;100027.34;;;12.56;nan
59053;BME280;44843;44.728;10.396;2023-04-20T07:09:29;100041.53;;;12.65;nan
59053;BME280;44843;44.728;10.396;2023-04-20T07:11:54;100045.78;;;12.79;nan
59053;BME280;44843;44.728;10.396;2023-04-20T07:14:20;100054.50;;;12.91;nan
59053;BME280;44843;44.728;10.396;2023-04-20T07:16:45;100062.84;;;12.96;nan
59053;BME280;44843;44.728;10.396;2023-04-20T07:19:11;100059.06;;;13.00;nan
59053;BME280;44843;44.728;10.396;2023-04-20T07:21:36;100070.53;;;13.10;nan
59053;BME280;44843;44.728;10.396;2023-04-20T07:24:02;100066.06;;;13.24;nan
59053;BME280;44843;44.728;10.396;2023-04-20T07:26:27;100069.13;;;13.17;nan
59053;BME280;44843;44.728;10.396;2023-04-20T07:28:53;100060.91;;;13.22;nan
59053;BME280;44843;44.728;10.396;2023-04-20T07:31:18;100064.59;;;13.19;nan
59053;BME280;44843;44.728;10.396;2023-04-20T07:33:43;100062.16;;;13.29;nan
59053;BME280;44843;44.728;10.396;2023-04-20T07:36:09;100059.16;;;13.58;nan
59053;BME280;44843;44.728;10.396;2023-04-20T07:38:35;100058.91;;;13.61;nan
59053;BME280;44843;44.728;10.396;2023-04-20T07:41:01;100061.78;;;13.58;nan
59053;BME280;44843;44.728;10.396;2023-04-20T07:43:27;100060.06;;;13.46;nan
59053;BME280;44843;44.728;10.396;2023-04-20T07:45:52;100057.09;;;13.50;nan
59053;BME280;44843;44.728;10.396;2023-04-20T07:48:17;100060.09;;;13.57;nan
59053;BME280;44843;44.728;10.396;2023-04-20T07:50:43;100061.06;;;13.67;nan
59053;BME280;44843;44.728;10.396;2023-04-20T07:53:08;100052.84;;;14.06;nan
59053;BME280;44843;44.728;10.396;2023-04-20T07:55:34;100048.53;;;13.71;nan
59053;BME280;44843;44.728;10.396;2023-04-20T07:57:59;100053.81;;;13.82;nan
59053;BME280;44843;44.728;10.396;2023-04-20T08:00:25;100048.69;;;13.80;nan
59053;BME280;44843;44.728;10.396;2023-04-20T08:02:51;100053.66;;;13.61;nan
59053;BME280;44843;44.728;10.396;2023-04-20T08:05:17;100045.47;;;13.77;nan
59053;BME280;44843;44.728;10.396;2023-04-20T08:07:43;100037.13;;;13.72;nan
59053;BME280;44843;44.728;10.396;2023-04-20T08:10:08;100037.47;;;13.67;nan
59053;BME280;44843;44.728;10.396;2023-04-20T08:12:34;100042.13;;;13.64;nan
59053;BME280;44843;44.728;10.396;2023-04-20T08:14:59;100039.13;;;13.79;nan
59053;BME280;44843;44.728;10.396;2023-04-20T08:17:28;100051.91;;;13.84;nan
59053;BME280;44843;44.728;10.396;2023-04-20T08:19:53;100044.00;;;13.62;nan
59053;BME280;44843;44.728;10.396;2023-04-20T08:22:19;100046.78;;;13.83;nan
59053;BME280;44843;44.728;10.396;2023-04-20T08:24:45;100050.59;;;13.78;nan
59053;BME280;44843;44.728;10.396;2023-04-20T08:27:11;100056.56;;;13.92;nan
59053;BME280;44843;44.728;10.396;2023-04-20T08:29:37;100051.19;;;14.05;nan
59053;BME280;44843;44.728;10.396;2023-04-20T08:32:03;100051.81;;;14.08;nan
59053;BME280;44843;44.728;10.396;2023-04-20T08:34:28;100049.16;;;13.97;nan
59053;BME280;44843;44.728;10.396;2023-04-20T08:36:53;100053.41;;;14.32;nan
59053;BME280;44843;44.728;10.396;2023-04-20T08:39:20;100051.53;;;14.22;nan
59053;BME280;44843;44.728;10.396;2023-04-20T08:41:49;100053.28;;;14.45;nan
59053;BME280;44843;44.728;10.396;2023-04-20T08:44:18;100054.72;;;14.49;nan
59053;BME280;44843;44.728;10.396;2023-04-20T08:46:46;100043.84;;;14.65;nan
59053;BME280;44843;44.728;10.396;2023-04-20T08:49:14;100052.69;;;14.52;nan
59053;BME280;44843;44.728;10.396;2023-04-20T08:51:40;100056.41;;;14.38;nan
59053;BME280;44843;44.728;10.396;2023-04-20T08:54:05;100058.88;;;14.62;nan
59053;BME280;44843;44.728;10.396;2023-04-20T08:56:35;100056.81;;;14.77;nan
59053;BME280;44843;44.728;10.396;2023-04-20T08:59:01;100052.19;;;15.02;nan
59053;BME280;44843;44.728;10.396;2023-04-20T09:01:28;100059.13;;;14.59;nan
59053;BME280;44843;44.728;10.396;2023-04-20T09:03:53;100045.88;;;14.72;nan
59053;BME280;44843;44.728;10.396;2023-04-20T09:06:19;100055.28;;;14.75;nan
59053;BME280;44843;44.728;10.396;2023-04-20T09:08:45;100060.22;;;14.57;nan
59053;BME280;44843;44.728;10.396;2023-04-20T09:13:56;100056.25;;;14.74;nan
59053;BME280;44843;44.728;10.396;2023-04-20T09:16:23;100050.66;;;14.67;nan
59053;BME280;44843;44.728;10.396;2023-04-20T09:18:52;100055.88;;;14.78;nan
59053;BME280;44843;44.728;10.396;2023-04-20T09:21:19;100053.19;;;14.90;nan
59053;BME280;44843;44.728;10.396;2023-04-20T09:24:01;100051.28;;;14.92;nan
59053;BME280;44843;44.728;10.396;2023-04-20T09:26:30;100055.06;;;14.99;nan
59053;BME280;44843;44.728;10.396;2023-04-20T09:28:57;100060.84;;;15.14;nan
59053;BME280;44843;44.728;10.396;2023-04-20T09:31:22;100053.41;;;15.19;nan
59053;BME280;44843;44.728;10.396;2023-04-20T09:34:01;100051.19;;;15.35;nan
59053;BME280;44843;44.728;10.396;2023-04-20T09:36:38;100050.53;;;15.01;nan
59053;BME280;44843;44.728;10.396;2023-04-20T09:39:08;100053.47;;;15.50;nan
59053;BME280;44843;44.728;10.396;2023-04-20T09:41:35;100051.91;;;15.79;nan
59053;BME280;44843;44.728;10.396;2023-04-20T09:44:01;100057.94;;;16.01;nan
59053;BME280;44843;44.728;10.396;2023-04-20T09:46:28;100052.59;;;16.12;nan
59053;BME280;44843;44.728;10.396;2023-04-20T09:48:57;100054.84;;;15.96;nan
59053;BME280;44843;44.728;10.396;2023-04-20T09:51:28;100057.38;;;15.97;nan
59053;BME280;44843;44.728;10.396;2023-04-20T09:53:58;100048.28;;;16.11;nan
59053;BME280;44843;44.728;10.396;2023-04-20T09:56:24;100061.44;;;15.80;nan
59053;BME280;44843;44.728;10.396;2023-04-20T09:58:51;100055.56;;;15.46;nan
59053;BME280;44843;44.728;10.396;2023-04-20T10:01:18;100055.00;;;15.94;nan
59053;BME280;44843;44.728;10.396;2023-04-20T10:03:44;100056.97;;;16.02;nan
59053;BME280;44843;44.728;10.396;2023-04-20T10:06:22;100060.88;;;15.77;nan
59053;BME280;44843;44.728;10.396;2023-04-20T10:08:49;100064.94;;;15.70;nan
59053;BME280;44843;44.728;10.396;2023-04-20T10:13:51;100063.06;;;16.02;nan
59053;BME280;44843;44.728;10.396;2023-04-20T10:16:20;100054.16;;;15.94;nan
59053;BME280;44843;44.728;10.396;2023-04-20T10:19:00;100057.78;;;16.02;nan
59053;BME280;44843;44.728;10.396;2023-04-20T10:21:28;100060.81;;;15.98;nan
59053;BME280;44843;44.728;10.396;2023-04-20T10:23:53;100064.44;;;15.97;nan
59053;BME280;44843;44.728;10.396;2023-04-20T10:26:19;100073.03;;;15.78;nan
59053;BME280;44843;44.728;10.396;2023-04-20T10:28:45;100064.69;;;15.52;nan
59053;BME280;44843;44.728;10.396;2023-04-20T10:31:12;100062.16;;;15.61;nan
59053;BME280;44843;44.728;10.396;2023-04-20T10:33:51;100050.34;;;15.56;nan
59053;BME280;44843;44.728;10.396;2023-04-20T10:36:31;100048.22;;;15.71;nan
59053;BME280;44843;44.728;10.396;2023-04-20T10:38:59;100049.28;;;15.89;nan
59053;BME280;44843;44.728;10.396;2023-04-20T10:41:30;100042.47;;;16.17;nan
59053;BME280;44843;44.728;10.396;2023-04-20T10:44:06;100040.56;;;16.19;nan
59053;BME280;44843;44.728;10.396;2023-04-20T10:46:31;100032.56;;;16.31;nan
59053;BME280;44843;44.728;10.396;2023-04-20T10:48:59;100031.91;;;16.38;nan
59053;BME280;44843;44.728;10.396;2023-04-20T10:51:27;100033.03;;;16.55;nan
59053;BME280;44843;44.728;10.396;2023-04-20T10:54:03;100019.31;;;16.52;nan
59053;BME280;44843;44.728;10.396;2023-04-20T10:56:39;100025.41;;;16.42;nan
59053;BME280;44843;44.728;10.396;2023-04-20T10:59:10;100026.03;;;16.25;nan
59053;BME280;44843;44.728;10.396;2023-04-20T11:01:36;100025.47;;;16.21;nan
59053;BME280;44843;44.728;10.396;2023-04-20T11:04:02;100008.81;;;16.11;nan
59053;BME280;44843;44.728;10.396;2023-04-20T11:06:29;100011.09;;;16.25;nan
59053;BME280;44843;44.728;10.396;2023-04-20T11:08:54;99996.41;;;16.33;nan
59053;BME280;44843;44.728;10.396;2023-04-20T11:11:25;100008.06;;;16.30;nan
59053;BME280;44843;44.728;10.396;2023-04-20T11:14:07;100007.06;;;16.21;nan
59053;BME280;44843;44.728;10.396;2023-04-20T11:16:33;100009.53;;;16.13;nan
59053;BME280;44843;44.728;10.396;2023-04-20T11:18:59;99993.53;;;16.36;nan
59053;BME280;44843;44.728;10.396;2023-04-20T11:21:35;99997.56;;;16.50;nan
59053;BME280;44843;44.728;10.396;2023-04-20T11:24:02;99994.78;;;16.32;nan
59053;BME280;44843;44.728;10.396;2023-04-20T11:26:37;99994.38;;;16.56;nan
59053;BME280;44843;44.728;10.396;2023-04-20T11:29:04;99999.78;;;16.44;nan
59053;BME280;44843;44.728;10.396;2023-04-20T11:31:30;99991.31;;;16.41;nan
59053;BME280;44843;44.728;10.396;2023-04-20T11:33:55;99987.78;;;16.01;nan
59053;BME280;44843;44.728;10.396;2023-04-20T11:36:22;99990.91;;;16.45;nan
59053;BME280;44843;44.728;10.396;2023-04-20T11:38:48;99996.47;;;16.81;nan
59053;BME280;44843;44.728;10.396;2023-04-20T11:41:15;99987.91;;;16.89;nan
59053;BME280;44843;44.728;10.396;2023-04-20T11:43:41;99980.81;;;17.09;nan
59053;BME280;44843;44.728;10.396;2023-04-20T11:46:15;99987.06;;;16.98;nan
59053;BME280;44843;44.728;10.396;2023-04-20T11:48:41;99981.50;;;16.62;nan
59053;BME280;44843;44.728;10.396;2023-04-20T11:51:07;99981.13;;;16.86;nan
59053;BME280;44843;44.728;10.396;2023-04-20T11:53:32;99976.97;;;16.84;nan
59053;BME280;44843;44.728;10.396;2023-04-20T11:55:58;99988.56;;;16.81;nan
59053;BME280;44843;44.728;10.396;2023-04-20T11:58:23;99986.09;;;16.89;nan
59053;BME280;44843;44.728;10.396;2023-04-20T12:00:48;99969.72;;;16.76;nan
59053;BME280;44843;44.728;10.396;2023-04-20T12:03:14;99988.28;;;16.75;nan
59053;BME280;44843;44.728;10.396;2023-04-20T12:05:39;99973.16;;;16.57;nan
59053;BME280;44843;44.728;10.396;2023-04-20T12:08:07;99975.41;;;16.81;nan
59053;BME280;44843;44.728;10.396;2023-04-20T12:10:32;99971.66;;;16.74;nan
59053;BME280;44843;44.728;10.396;2023-04-20T12:12:58;99962.56;;;16.88;nan
59053;BME280;44843;44.728;10.396;2023-04-20T12:15:25;99965.44;;;17.04;nan
59053;BME280;44843;44.728;10.396;2023-04-20T12:17:51;99965.81;;;17.09;nan
59053;BME280;44843;44.728;10.396;2023-04-20T12:20:16;99959.59;;;17.11;nan
59053;BME280;44843;44.728;10.396;2023-04-20T12:22:41;99957.19;;;17.27;nan
59053;BME280;44843;44.728;10.396;2023-04-20T12:25:07;99956.19;;;17.38;nan
59053;BME280;44843;44.728;10.396;2023-04-20T12:27:32;99968.97;;;17.33;nan
59053;BME280;44843;44.728;10.396;2023-04-20T12:29:58;99962.19;;;17.30;nan
59053;BME280;44843;44.728;10.396;2023-04-20T12:32:23;99952.34;;;17.32;nan
59053;BME280;44843;44.728;10.396;2023-04-20T12:34:48;99964.34;;;17.44;nan
59053;BME280;44843;44.728;10.396;2023-04-20T12:37:14;99960.34;;;17.40;nan
59053;BME280;44843;44.728;10.396;2023-04-20T12:39:40;99957.63;;;17.22;nan
59053;BME280;44843;44.728;10.396;2023-04-20T12:42:05;99941.69;;;17.14;nan
59053;BME280;44843;44.728;10.396;2023-04-20T12:44:31;99954.41;;;17.28;nan
59053;BME280;44843;44.728;10.396;2023-04-20T12:46:56;99942.66;;;17.13;nan
59053;BME280;44843;44.728;10.396;2023-04-20T12:49:21;99948.88;;;17.22;nan
59053;BME280;44843;44.728;10.396;2023-04-20T12:51:47;99944.91;;;16.98;nan
59053;BME280;44843;44.728;10.396;2023-04-20T12:54:12;99936.59;;;17.03;nan
59053;BME280;44843;44.728;10.396;2023-04-20T12:56:38;99939.94;;;16.95;nan
59053;BME280;44843;44.728;10.396;2023-04-20T12:59:03;99944.66;;;16.92;nan
59053;BME280;44843;44.728;10.396;2023-04-20T13:01:28;99946.19;;;16.84;nan
59053;BME280;44843;44.728;10.396;2023-04-20T13:03:54;99938.81;;;16.98;nan